Time;durP1;ratioP1;P1;durP2;ratioP2;P2;SDS_P1;SDS_P2;PMS_P1;PMS_P2;Temp;Humidity;BMP_temperature;BMP_pressure;BME280_temperature;BME280_humidity;BME280_pressure;Samples;Min_cycle;Max_cycle;Signal;HPM_P1;HPM_P2
2021/12/09 00:01:49;;;;;;;0.10;0.10;;;;;;;;;;5113261;28;20066;-85
2021/12/09 00:04:18;;;;;;;0.10;0.10;;;;;;;;;;5096211;28;20051;-85
2021/12/09 00:06:44;;;;;;;0.10;0.10;;;;;;;;;;5079640;28;20062;-86
2021/12/09 00:09:12;;;;;;;0.10;0.10;;;;;;;;;;5112804;28;20078;-85
2021/12/09 00:11:45;;;;;;;0.10;0.10;;;;;;;;;;5112976;28;20124;-85
2021/12/09 00:14:15;;;;;;;0.10;0.10;;;;;;;;;;5096891;28;20486;-85
2021/12/09 00:16:41;;;;;;;0.10;0.10;;;;;;;;;;5078998;28;20549;-86
2021/12/09 00:19:07;;;;;;;0.10;0.10;;;;;;;;;;5095867;28;20079;-85
2021/12/09 00:21:34;;;;;;;0.10;0.10;;;;;;;;;;5112639;28;20039;-86
2021/12/09 00:24:00;;;;;;;0.10;0.10;;;;;;;;;;5095695;28;20549;-86
2021/12/09 00:26:26;;;;;;;0.10;0.10;;;;;;;;;;5112523;28;20135;-86
2021/12/09 00:28:52;;;;;;;0.10;0.10;;;;;;;;;;5112245;28;20395;-85
2021/12/09 00:31:18;;;;;;;0.10;0.10;;;;;;;;;;5112510;28;20039;-85
2021/12/09 00:33:46;;;;;;;0.10;0.10;;;;;;;;;;5078933;28;20036;-85
2021/12/09 00:36:14;;;;;;;0.08;0.08;;;;;;;;;;5095221;28;20493;-85
2021/12/09 00:38:41;;;;;;;0.10;0.10;;;;;;;;;;5078790;28;20047;-86
2021/12/09 00:41:08;;;;;;;0.10;0.10;;;;;;;;;;5095659;28;20395;-85
2021/12/09 00:43:35;;;;;;;0.10;0.10;;;;;;;;;;5095237;28;20046;-85
2021/12/09 00:46:01;;;;;;;0.00;0.00;;;;;;;;;;5095324;28;20394;-85
2021/12/09 00:48:27;;;;;;;0.10;0.10;;;;;;;;;;5095108;28;20485;-86
2021/12/09 00:50:53;;;;;;;0.10;0.10;;;;;;;;;;5095122;28;20035;-85
2021/12/09 00:53:19;;;;;;;0.15;0.15;;;;;;;;;;5095127;28;20417;-85
2021/12/09 00:55:45;;;;;;;0.10;0.10;;;;;;;;;;5095158;28;20040;-86
2021/12/09 00:58:11;;;;;;;0.10;0.10;;;;;;;;;;5112061;28;20047;-85
2021/12/09 01:00:37;;;;;;;0.10;0.10;;;;;;;;;;5111998;28;20046;-85
2021/12/09 01:03:03;;;;;;;0.10;0.10;;;;;;;;;;5112120;28;20071;-85
2021/12/09 01:05:29;;;;;;;0.35;0.20;;;;;;;;;;5094877;28;20040;-85
2021/12/09 01:07:55;;;;;;;0.10;0.10;;;;;;;;;;5111650;28;20398;-85
2021/12/09 01:10:21;;;;;;;0.10;0.10;;;;;;;;;;5094964;28;20118;-84
2021/12/09 01:12:47;;;;;;;0.10;0.10;;;;;;;;;;5094972;28;20043;-85
2021/12/09 01:15:14;;;;;;;0.10;0.10;;;;;;;;;;5094792;28;20051;-85
2021/12/09 01:17:40;;;;;;;0.20;0.20;;;;;;;;;;5094663;28;20040;-85
2021/12/09 01:20:06;;;;;;;0.10;0.10;;;;;;;;;;5094690;28;20510;-85
2021/12/09 01:22:43;;;;;;;0.10;0.10;;;;;;;;;;5111612;28;20127;-85
2021/12/09 01:25:09;;;;;;;0.10;0.10;;;;;;;;;;5094663;28;20036;-85
2021/12/09 01:27:38;;;;;;;0.10;0.10;;;;;;;;;;5094390;28;20082;-85
2021/12/09 01:30:09;;;;;;;0.10;0.10;;;;;;;;;;5094766;28;20055;-85
2021/12/09 01:32:35;;;;;;;0.10;0.10;;;;;;;;;;5078325;28;20036;-86
2021/12/09 01:35:01;;;;;;;0.15;0.10;;;;;;;;;;5077631;28;20085;-85
2021/12/09 01:37:27;;;;;;;0.00;0.00;;;;;;;;;;5094569;28;20466;-86
2021/12/09 01:39:53;;;;;;;2.83;2.63;;;;;;;;;;5094507;28;20040;-86
2021/12/09 01:42:20;;;;;;;0.10;0.10;;;;;;;;;;5111401;28;20120;-86
2021/12/09 01:44:46;;;;;;;0.10;0.10;;;;;;;;;;5094523;28;20051;-86
2021/12/09 01:47:12;;;;;;;0.10;0.10;;;;;;;;;;5094621;28;20096;-87
2021/12/09 01:49:38;;;;;;;0.00;0.00;;;;;;;;;;5111288;28;20048;-87
2021/12/09 01:52:04;;;;;;;0.10;0.10;;;;;;;;;;5094422;28;20038;-87
2021/12/09 01:54:30;;;;;;;0.03;0.03;;;;;;;;;;5094436;28;20047;-87
2021/12/09 01:56:56;;;;;;;0.10;0.10;;;;;;;;;;5077384;28;20036;-86
2021/12/09 01:59:22;;;;;;;0.10;0.10;;;;;;;;;;5111372;28;20075;-86
2021/12/09 02:01:48;;;;;;;0.10;0.10;;;;;;;;;;5094192;28;20047;-87
2021/12/09 02:04:14;;;;;;;0.10;0.10;;;;;;;;;;5077701;28;20036;-87
2021/12/09 02:06:40;;;;;;;0.10;0.10;;;;;;;;;;5094300;28;20035;-87
2021/12/09 02:09:10;;;;;;;0.10;0.10;;;;;;;;;;5077363;28;20453;-87
2021/12/09 02:11:36;;;;;;;0.10;0.10;;;;;;;;;;5094426;28;20515;-87
2021/12/09 02:14:03;;;;;;;0.10;0.10;;;;;;;;;;5094398;28;20036;-87
2021/12/09 02:16:29;;;;;;;0.10;0.10;;;;;;;;;;5094096;28;20393;-86
2021/12/09 02:18:55;;;;;;;0.00;0.00;;;;;;;;;;5094417;28;20440;-87
2021/12/09 02:21:22;;;;;;;0.10;0.10;;;;;;;;;;5094243;28;20035;-87
2021/12/09 02:23:50;;;;;;;0.10;0.10;;;;;;;;;;5110937;28;20051;-87
2021/12/09 02:26:16;;;;;;;0.15;0.15;;;;;;;;;;5093901;28;20050;-86
2021/12/09 02:28:42;;;;;;;0.10;0.10;;;;;;;;;;5110640;28;20047;-86
2021/12/09 02:31:08;;;;;;;0.08;0.08;;;;;;;;;;5077190;28;20079;-87
2021/12/09 02:33:34;;;;;;;0.10;0.10;;;;;;;;;;5110887;28;20071;-87
2021/12/09 02:36:00;;;;;;;0.10;0.10;;;;;;;;;;5077307;28;20036;-86
2021/12/09 02:38:26;;;;;;;0.10;0.10;;;;;;;;;;5093766;28;20069;-87
2021/12/09 02:40:52;;;;;;;0.10;0.10;;;;;;;;;;5094169;28;20044;-87
2021/12/09 02:43:24;;;;;;;0.10;0.10;;;;;;;;;;5093905;28;20616;-86
2021/12/09 02:45:52;;;;;;;0.08;0.08;;;;;;;;;;5111119;28;20493;-86
2021/12/09 02:48:18;;;;;;;0.10;0.10;;;;;;;;;;5079060;28;20096;-86
2021/12/09 02:50:45;;;;;;;0.20;0.20;;;;;;;;;;5097641;28;20042;-86
2021/12/09 02:53:11;;;;;;;0.00;0.00;;;;;;;;;;5114314;28;20062;-86
2021/12/09 02:55:37;;;;;;;0.10;0.10;;;;;;;;;;5080575;28;20035;-86
2021/12/09 02:58:03;;;;;;;0.00;0.00;;;;;;;;;;5114339;28;20123;-87
2021/12/09 03:00:29;;;;;;;0.10;0.10;;;;;;;;;;5097429;28;20544;-86
2021/12/09 03:02:57;;;;;;;0.00;0.00;;;;;;;;;;5097405;28;20039;-86
2021/12/09 03:05:23;;;;;;;0.10;0.10;;;;;;;;;;5097951;28;20054;-86
2021/12/09 03:07:49;;;;;;;0.10;0.10;;;;;;;;;;5097067;28;20035;-86
2021/12/09 03:10:24;;;;;;;0.10;0.10;;;;;;;;;;5096994;28;20122;-86
2021/12/09 03:12:51;;;;;;;0.08;0.08;;;;;;;;;;5080457;28;20035;-86
2021/12/09 03:15:17;;;;;;;0.00;0.00;;;;;;;;;;5097114;28;20284;-86
2021/12/09 03:17:43;;;;;;;0.85;0.20;;;;;;;;;;5096971;28;20155;-86
2021/12/09 03:20:10;;;;;;;0.20;0.20;;;;;;;;;;5113864;28;20039;-86
2021/12/09 03:22:36;;;;;;;0.10;0.10;;;;;;;;;;5080214;28;20036;-86
2021/12/09 03:25:03;;;;;;;0.10;0.10;;;;;;;;;;5080031;28;20046;-86
2021/12/09 03:27:29;;;;;;;0.00;0.00;;;;;;;;;;5113479;28;20126;-86
2021/12/09 03:29:55;;;;;;;0.00;0.00;;;;;;;;;;5096993;28;20139;-86
2021/12/09 03:32:23;;;;;;;0.20;0.20;;;;;;;;;;5096643;28;20036;-85
2021/12/09 03:34:49;;;;;;;0.17;0.17;;;;;;;;;;5096924;28;20044;-85
2021/12/09 03:37:16;;;;;;;0.00;0.00;;;;;;;;;;5113577;28;20372;-85
2021/12/09 03:39:42;;;;;;;0.10;0.10;;;;;;;;;;5096932;28;20031;-85
2021/12/09 03:42:09;;;;;;;0.10;0.10;;;;;;;;;;5079964;28;20138;-85
2021/12/09 03:44:35;;;;;;;0.10;0.10;;;;;;;;;;5079940;28;20089;-86
2021/12/09 03:47:02;;;;;;;0.10;0.10;;;;;;;;;;5096397;28;20516;-86
2021/12/09 03:49:28;;;;;;;0.35;0.15;;;;;;;;;;5079545;28;20043;-85
2021/12/09 03:51:54;;;;;;;0.10;0.10;;;;;;;;;;5113336;28;20088;-85
2021/12/09 03:54:20;;;;;;;0.10;0.10;;;;;;;;;;5096458;28;20114;-86
2021/12/09 03:56:46;;;;;;;0.10;0.10;;;;;;;;;;5096206;28;20434;-85
2021/12/09 03:59:13;;;;;;;0.10;0.10;;;;;;;;;;5096012;28;20067;-85
2021/12/09 04:01:39;;;;;;;0.00;0.00;;;;;;;;;;5096188;28;20050;-86
2021/12/09 04:04:05;;;;;;;0.10;0.10;;;;;;;;;;5096108;28;20040;-86
2021/12/09 04:06:31;;;;;;;0.10;0.10;;;;;;;;;;5079262;28;20075;-85
2021/12/09 04:08:58;;;;;;;0.10;0.10;;;;;;;;;;5112980;28;20075;-85
2021/12/09 04:11:23;;;;;;;0.10;0.10;;;;;;;;;;5096000;28;20047;-85
2021/12/09 04:13:50;;;;;;;0.50;0.20;;;;;;;;;;5079092;28;20035;-85
2021/12/09 04:16:16;;;;;;;0.20;0.20;;;;;;;;;;5095868;28;20381;-85
2021/12/09 04:18:42;;;;;;;0.20;0.20;;;;;;;;;;5078773;28;20122;-85
2021/12/09 04:21:08;;;;;;;0.10;0.10;;;;;;;;;;5112721;28;20047;-85
2021/12/09 04:23:34;;;;;;;0.00;0.00;;;;;;;;;;5113015;28;20123;-86
2021/12/09 04:26:00;;;;;;;0.20;0.20;;;;;;;;;;5095864;28;20088;-86
2021/12/09 04:28:26;;;;;;;0.10;0.10;;;;;;;;;;5095304;28;20051;-85
2021/12/09 04:30:52;;;;;;;0.10;0.10;;;;;;;;;;5095654;28;20501;-85
2021/12/09 04:33:18;;;;;;;0.00;0.00;;;;;;;;;;5095671;28;20047;-85
2021/12/09 04:35:44;;;;;;;0.15;0.10;;;;;;;;;;5112503;28;20071;-84
2021/12/09 04:38:10;;;;;;;0.40;0.40;;;;;;;;;;5112553;28;20044;-84
2021/12/09 04:40:36;;;;;;;0.10;0.10;;;;;;;;;;5112611;28;20046;-84
2021/12/09 04:43:02;;;;;;;0.20;0.20;;;;;;;;;;5095488;28;20036;-85
2021/12/09 04:45:28;;;;;;;0.10;0.10;;;;;;;;;;5095403;28;20559;-85
2021/12/09 04:47:54;;;;;;;0.10;0.10;;;;;;;;;;5095169;28;20543;-84
2021/12/09 04:50:20;;;;;;;0.13;0.13;;;;;;;;;;5112221;28;20063;-86
2021/12/09 04:52:46;;;;;;;0.08;0.08;;;;;;;;;;5095280;28;20027;-86
2021/12/09 04:55:12;;;;;;;0.10;0.10;;;;;;;;;;5111987;28;20039;-85
2021/12/09 04:57:42;;;;;;;0.10;0.10;;;;;;;;;;5111919;28;20040;-85
2021/12/09 05:00:09;;;;;;;0.10;0.10;;;;;;;;;;5078941;28;20035;-84
2021/12/09 05:05:19;;;;;;;0.10;0.10;;;;;;;;;;5112071;28;20047;-85
2021/12/09 05:07:46;;;;;;;0.10;0.10;;;;;;;;;;5095056;28;20089;-85
2021/12/09 05:10:12;;;;;;;0.10;0.10;;;;;;;;;;5094293;28;20525;-85
2021/12/09 05:12:38;;;;;;;0.10;0.10;;;;;;;;;;5111711;28;20040;-85
2021/12/09 05:15:04;;;;;;;0.10;0.10;;;;;;;;;;5094993;28;20567;-85
2021/12/09 05:17:30;;;;;;;0.10;0.10;;;;;;;;;;5111806;28;20043;-85
2021/12/09 05:19:56;;;;;;;0.10;0.10;;;;;;;;;;5111893;28;20046;-85
2021/12/09 05:22:22;;;;;;;0.10;0.10;;;;;;;;;;5078113;28;20047;-85
2021/12/09 05:24:50;;;;;;;0.40;0.20;;;;;;;;;;5078111;28;20050;-85
2021/12/09 05:27:17;;;;;;;0.10;0.10;;;;;;;;;;5094153;28;20092;-85
2021/12/09 05:29:44;;;;;;;0.10;0.10;;;;;;;;;;5094643;28;20552;-85
2021/12/09 05:32:12;;;;;;;0.10;0.10;;;;;;;;;;5095030;28;20047;-85
2021/12/09 05:34:43;;;;;;;0.10;0.10;;;;;;;;;;5094963;28;20400;-85
2021/12/09 05:37:11;;;;;;;0.10;0.10;;;;;;;;;;5094519;28;20039;-84
2021/12/09 05:39:37;;;;;;;0.10;0.10;;;;;;;;;;5094576;28;20070;-85
2021/12/09 05:42:04;;;;;;;0.10;0.10;;;;;;;;;;5094507;28;20096;-85
2021/12/09 05:44:30;;;;;;;0.10;0.10;;;;;;;;;;5077589;28;20096;-85
2021/12/09 05:46:56;;;;;;;0.10;0.10;;;;;;;;;;5094284;28;20122;-85
2021/12/09 05:49:22;;;;;;;0.10;0.10;;;;;;;;;;5094328;28;20557;-86
2021/12/09 05:51:48;;;;;;;0.00;0.00;;;;;;;;;;5111308;28;20127;-85
2021/12/09 05:54:14;;;;;;;0.10;0.10;;;;;;;;;;5094330;28;20039;-85
2021/12/09 05:56:40;;;;;;;0.10;0.10;;;;;;;;;;5077699;28;20044;-85
2021/12/09 05:59:07;;;;;;;0.10;0.10;;;;;;;;;;5094518;28;20137;-85
2021/12/09 06:01:33;;;;;;;0.10;0.10;;;;;;;;;;5111293;28;20043;-84
2021/12/09 06:03:59;;;;;;;0.10;0.10;;;;;;;;;;5094491;28;20434;-84
2021/12/09 06:06:25;;;;;;;0.10;0.10;;;;;;;;;;5094240;28;20176;-85
2021/12/09 06:08:51;;;;;;;0.20;0.20;;;;;;;;;;5110982;28;20043;-84
2021/12/09 06:11:17;;;;;;;0.10;0.10;;;;;;;;;;5094059;28;20482;-84
2021/12/09 06:13:46;;;;;;;0.10;0.10;;;;;;;;;;5094030;28;20486;-85
2021/12/09 06:16:12;;;;;;;0.10;0.10;;;;;;;;;;5093998;28;20482;-85
2021/12/09 06:18:38;;;;;;;0.10;0.10;;;;;;;;;;5094328;28;20127;-85
2021/12/09 06:21:04;;;;;;;0.10;0.10;;;;;;;;;;5094395;28;20040;-85
2021/12/09 06:23:30;;;;;;;0.10;0.10;;;;;;;;;;5114967;28;20040;-85
2021/12/09 06:25:56;;;;;;;0.10;0.10;;;;;;;;;;5098122;28;20276;-85
2021/12/09 06:28:22;;;;;;;0.10;0.10;;;;;;;;;;5097711;28;20191;-85
2021/12/09 06:30:48;;;;;;;0.10;0.10;;;;;;;;;;5098005;28;20306;-85
2021/12/09 06:33:13;;;;;;;0.05;0.05;;;;;;;;;;5097956;28;20084;-85
2021/12/09 06:35:40;;;;;;;0.10;0.10;;;;;;;;;;5097886;28;20398;-85
2021/12/09 06:38:11;;;;;;;0.10;0.10;;;;;;;;;;5097914;28;20034;-85
2021/12/09 06:40:37;;;;;;;0.10;0.10;;;;;;;;;;5098709;28;20085;-85
2021/12/09 06:43:03;;;;;;;0.10;0.10;;;;;;;;;;5097749;28;20046;-85
2021/12/09 06:45:29;;;;;;;0.10;0.10;;;;;;;;;;5097687;28;20075;-84
2021/12/09 06:47:55;;;;;;;0.10;0.10;;;;;;;;;;5080739;28;20061;-85
2021/12/09 06:50:21;;;;;;;0.15;0.15;;;;;;;;;;5114575;28;20046;-84
2021/12/09 06:52:47;;;;;;;0.10;0.10;;;;;;;;;;5097789;28;20177;-85
2021/12/09 06:55:13;;;;;;;1.23;0.20;;;;;;;;;;5097793;28;20120;-86
2021/12/09 06:57:39;;;;;;;0.10;0.10;;;;;;;;;;5097591;28;20035;-89
2021/12/09 07:00:09;;;;;;;0.10;0.10;;;;;;;;;;5097676;28;20048;-92
2021/12/09 07:02:35;;;;;;;0.10;0.10;;;;;;;;;;5097633;28;20438;-89
2021/12/09 07:05:02;;;;;;;0.20;0.20;;;;;;;;;;5097464;28;20050;-89
2021/12/09 07:07:28;;;;;;;0.10;0.10;;;;;;;;;;5097337;28;20490;-88
2021/12/09 07:09:53;;;;;;;0.10;0.10;;;;;;;;;;5097229;28;20044;-88
2021/12/09 07:12:19;;;;;;;0.10;0.10;;;;;;;;;;5097224;28;20390;-88
2021/12/09 07:14:45;;;;;;;0.10;0.10;;;;;;;;;;5097250;28;20123;-87
2021/12/09 07:17:11;;;;;;;0.10;0.10;;;;;;;;;;5114262;28;20046;-87
2021/12/09 07:19:38;;;;;;;0.08;0.08;;;;;;;;;;5114065;28;20075;-83
2021/12/09 07:22:04;;;;;;;0.73;0.17;;;;;;;;;;5097337;28;20394;-83
2021/12/09 07:24:30;;;;;;;0.10;0.10;;;;;;;;;;5080396;28;20515;-87
2021/12/09 07:26:57;;;;;;;0.22;0.22;;;;;;;;;;5079936;28;20043;-84
2021/12/09 07:29:23;;;;;;;0.10;0.10;;;;;;;;;;5113566;28;20060;-87
2021/12/09 07:31:49;;;;;;;0.10;0.10;;;;;;;;;;5079686;28;20126;-85
2021/12/09 07:34:16;;;;;;;0.10;0.10;;;;;;;;;;5095593;28;20036;-85
2021/12/09 07:36:42;;;;;;;0.10;0.10;;;;;;;;;;5112590;28;20481;-85
2021/12/09 07:39:08;;;;;;;0.10;0.10;;;;;;;;;;5113710;28;20100;-85
2021/12/09 07:41:34;;;;;;;0.20;0.20;;;;;;;;;;5096657;28;20371;-85
2021/12/09 07:44:02;;;;;;;0.00;0.00;;;;;;;;;;5113582;28;20096;-85
2021/12/09 07:46:28;;;;;;;0.00;0.00;;;;;;;;;;5096704;28;20087;-85
2021/12/09 07:48:54;;;;;;;0.05;0.05;;;;;;;;;;5113615;28;20466;-85
2021/12/09 07:51:20;;;;;;;0.10;0.10;;;;;;;;;;5113343;28;20122;-85
2021/12/09 07:53:46;;;;;;;0.10;0.10;;;;;;;;;;5113402;28;20035;-84
2021/12/09 07:56:12;;;;;;;0.00;0.00;;;;;;;;;;5096529;28;20119;-85
2021/12/09 07:58:38;;;;;;;0.17;0.17;;;;;;;;;;5113604;28;20455;-85
2021/12/09 08:01:04;;;;;;;0.10;0.10;;;;;;;;;;5079419;28;20071;-85
2021/12/09 08:03:30;;;;;;;0.00;0.00;;;;;;;;;;5079002;28;20482;-85
2021/12/09 08:05:56;;;;;;;0.10;0.10;;;;;;;;;;5079295;28;20065;-85
2021/12/09 08:08:22;;;;;;;0.00;0.00;;;;;;;;;;5095976;28;20051;-85
2021/12/09 08:10:48;;;;;;;0.10;0.10;;;;;;;;;;5096069;28;20042;-85
2021/12/09 08:13:14;;;;;;;0.10;0.10;;;;;;;;;;5113137;28;20042;-85
2021/12/09 08:15:45;;;;;;;0.10;0.10;;;;;;;;;;5096226;28;20044;-85
2021/12/09 08:20:49;;;;;;;0.00;0.00;;;;;;;;;;5097146;28;20046;-85
2021/12/09 08:23:15;;;;;;;0.00;0.00;;;;;;;;;;5112748;28;20435;-85
2021/12/09 08:25:42;;;;;;;0.03;0.03;;;;;;;;;;5079260;28;20036;-87
2021/12/09 08:28:08;;;;;;;1.27;0.45;;;;;;;;;;5095340;28;20056;-84
2021/12/09 08:30:34;;;;;;;0.10;0.10;;;;;;;;;;5112558;28;20039;-84
2021/12/09 08:33:00;;;;;;;0.10;0.10;;;;;;;;;;5078822;28;20549;-86
2021/12/09 08:35:26;;;;;;;0.10;0.10;;;;;;;;;;5095819;28;20033;-87
2021/12/09 08:37:56;;;;;;;0.03;0.03;;;;;;;;;;5095450;28;20057;-84
2021/12/09 08:40:22;;;;;;;0.10;0.10;;;;;;;;;;5096148;28;20047;-85
2021/12/09 08:42:49;;;;;;;0.05;0.05;;;;;;;;;;5095324;28;20044;-86
2021/12/09 08:45:16;;;;;;;0.10;0.10;;;;;;;;;;5094535;28;20489;-86
2021/12/09 08:47:42;;;;;;;0.00;0.00;;;;;;;;;;5078413;28;20131;-85
2021/12/09 08:50:08;;;;;;;0.10;0.10;;;;;;;;;;5112041;28;20083;-86
2021/12/09 08:52:35;;;;;;;0.10;0.10;;;;;;;;;;5095519;28;20465;-87
2021/12/09 08:55:01;;;;;;;0.05;0.05;;;;;;;;;;5078269;28;20497;-84
2021/12/09 08:57:27;;;;;;;0.10;0.10;;;;;;;;;;5095146;28;20066;-85
2021/12/09 08:59:53;;;;;;;0.10;0.10;;;;;;;;;;5111855;28;20534;-85
2021/12/09 09:02:19;;;;;;;0.13;0.13;;;;;;;;;;5112210;28;20040;-85
2021/12/09 09:04:45;;;;;;;0.10;0.10;;;;;;;;;;5112088;28;20440;-85
2021/12/09 09:07:11;;;;;;;0.10;0.10;;;;;;;;;;5094783;28;20118;-85
2021/12/09 09:09:39;;;;;;;0.00;0.00;;;;;;;;;;5111715;28;20040;-84
2021/12/09 09:12:06;;;;;;;0.55;0.55;;;;;;;;;;5094771;28;20043;-85
2021/12/09 09:14:32;;;;;;;0.10;0.10;;;;;;;;;;5077966;28;20046;-84
2021/12/09 09:16:58;;;;;;;0.10;0.10;;;;;;;;;;5111856;28;20141;-85
2021/12/09 09:19:24;;;;;;;0.10;0.10;;;;;;;;;;5077906;28;20036;-85
2021/12/09 09:21:50;;;;;;;0.10;0.10;;;;;;;;;;5094700;28;20065;-89
2021/12/09 09:24:16;;;;;;;0.10;0.10;;;;;;;;;;5094770;28;20573;-88
2021/12/09 09:26:42;;;;;;;0.10;0.10;;;;;;;;;;5094356;28;20122;-88
2021/12/09 09:29:08;;;;;;;0.10;0.10;;;;;;;;;;5110851;28;20490;-85
2021/12/09 09:31:34;;;;;;;0.10;0.10;;;;;;;;;;5079527;28;20036;-85
2021/12/09 09:34:02;;;;;;;0.00;0.00;;;;;;;;;;5075448;28;20032;-85
2021/12/09 09:36:29;;;;;;;0.10;0.10;;;;;;;;;;5094635;28;20035;-85
2021/12/09 09:39:00;;;;;;;0.10;0.10;;;;;;;;;;5111112;28;20050;-85
2021/12/09 09:41:32;;;;;;;0.00;0.00;;;;;;;;;;5095123;28;20123;-85
2021/12/09 09:44:09;;;;;;;0.00;0.00;;;;;;;;;;5078819;28;20593;-86
2021/12/09 09:46:35;;;;;;;0.00;0.00;;;;;;;;;;5095729;28;20039;-85
2021/12/09 09:49:02;;;;;;;0.00;0.00;;;;;;;;;;5094710;28;20042;-86
2021/12/09 09:51:28;;;;;;;0.10;0.10;;;;;;;;;;5094371;28;20040;-85
2021/12/09 09:53:54;;;;;;;0.00;0.00;;;;;;;;;;5111195;28;20036;-85
2021/12/09 09:56:23;;;;;;;0.00;0.00;;;;;;;;;;5111726;28;20036;-84
2021/12/09 09:58:53;;;;;;;0.05;0.05;;;;;;;;;;5081994;28;20046;-85
2021/12/09 10:01:19;;;;;;;0.40;0.40;;;;;;;;;;5098829;28;20047;-85
2021/12/09 10:03:47;;;;;;;0.00;0.00;;;;;;;;;;5098616;28;20498;-85
2021/12/09 10:06:13;;;;;;;0.00;0.00;;;;;;;;;;5081893;28;20305;-84
2021/12/09 10:08:39;;;;;;;0.00;0.00;;;;;;;;;;5114996;28;20071;-85
2021/12/09 10:11:05;;;;;;;0.00;0.00;;;;;;;;;;5098399;28;20047;-85
2021/12/09 10:13:32;;;;;;;0.00;0.00;;;;;;;;;;5081693;28;20042;-85
2021/12/09 10:15:58;;;;;;;0.13;0.13;;;;;;;;;;5098089;28;20050;-85
2021/12/09 10:18:33;;;;;;;0.00;0.00;;;;;;;;;;5114321;28;20085;-85
2021/12/09 10:20:59;;;;;;;0.10;0.10;;;;;;;;;;5097825;28;20525;-85
2021/12/09 10:23:25;;;;;;;0.00;0.00;;;;;;;;;;5115145;28;20071;-85
2021/12/09 10:26:10;;;;;;;0.20;0.20;;;;;;;;;;5115600;28;20043;-85
2021/12/09 10:28:36;;;;;;;0.00;0.00;;;;;;;;;;5098286;28;20127;-85
2021/12/09 10:31:10;;;;;;;0.10;0.10;;;;;;;;;;5115965;28;20036;-85
2021/12/09 10:34:33;;;;;;;0.00;0.00;;;;;;;;;;5135940;28;20031;-87
2021/12/09 10:36:50;;;;;;;0.00;0.00;;;;;;;;;;5120137;28;20047;-85
2021/12/09 10:39:26;;;;;;;0.00;0.00;;;;;;;;;;5097845;28;20047;-85
2021/12/09 10:41:53;;;;;;;0.03;0.03;;;;;;;;;;5080831;28;20040;-85
2021/12/09 10:44:25;;;;;;;0.10;0.10;;;;;;;;;;5114716;28;20043;-84
2021/12/09 10:47:04;;;;;;;0.05;0.05;;;;;;;;;;5098080;28;20048;-85
2021/12/09 10:49:36;;;;;;;0.00;0.00;;;;;;;;;;5082474;28;20043;-87
2021/12/09 10:52:18;;;;;;;0.00;0.00;;;;;;;;;;5098578;28;20087;-84
2021/12/09 10:54:44;;;;;;;0.08;0.08;;;;;;;;;;5114436;28;20173;-85
2021/12/09 10:57:23;;;;;;;0.10;0.10;;;;;;;;;;5097117;28;20496;-84
2021/12/09 10:59:49;;;;;;;0.00;0.00;;;;;;;;;;5114215;28;20036;-84
2021/12/09 11:02:15;;;;;;;0.00;0.00;;;;;;;;;;5097082;28;20039;-85
2021/12/09 11:04:41;;;;;;;2.30;0.20;;;;;;;;;;5114267;28;20048;-84
2021/12/09 11:07:19;;;;;;;0.20;0.20;;;;;;;;;;5115115;28;20514;-84
2021/12/09 11:09:46;;;;;;;0.10;0.10;;;;;;;;;;5112784;28;20123;-84
2021/12/09 11:12:30;;;;;;;0.10;0.10;;;;;;;;;;5096810;28;20040;-85
2021/12/09 11:15:01;;;;;;;0.10;0.10;;;;;;;;;;5113912;28;20084;-85
2021/12/09 11:17:38;;;;;;;0.00;0.00;;;;;;;;;;5097554;28;20095;-84
2021/12/09 11:20:05;;;;;;;0.00;0.00;;;;;;;;;;5113860;28;20490;-85
2021/12/09 11:22:32;;;;;;;0.00;0.00;;;;;;;;;;5096627;28;20047;-85
2021/12/09 11:25:02;;;;;;;0.00;0.00;;;;;;;;;;5113598;28;20051;-85
2021/12/09 11:27:30;;;;;;;0.03;0.03;;;;;;;;;;5116628;28;20057;-85
2021/12/09 11:30:07;;;;;;;0.00;0.00;;;;;;;;;;5100197;28;20478;-87
2021/12/09 11:35:15;;;;;;;0.00;0.00;;;;;;;;;;5097327;28;20036;-85
2021/12/09 11:38:46;;;;;;;0.00;0.00;;;;;;;;;;5097020;28;20045;-85
2021/12/09 11:40:50;;;;;;;0.00;0.00;;;;;;;;;;5095665;28;20052;-85
2021/12/09 11:43:19;;;;;;;0.10;0.10;;;;;;;;;;5098078;28;20479;-88
2021/12/09 11:45:46;;;;;;;0.10;0.10;;;;;;;;;;5079352;28;20099;-91
2021/12/09 11:48:12;;;;;;;0.03;0.03;;;;;;;;;;5095957;28;20070;-86
2021/12/09 11:50:39;;;;;;;0.57;0.57;;;;;;;;;;5078911;28;20039;-85
2021/12/09 11:53:07;;;;;;;0.00;0.00;;;;;;;;;;5095912;28;20093;-85
2021/12/09 11:55:37;;;;;;;0.00;0.00;;;;;;;;;;5113143;28;20343;-85
2021/12/09 11:58:14;;;;;;;0.05;0.05;;;;;;;;;;5095765;28;20051;-85
2021/12/09 12:12:34;;;;;;;0.10;0.10;;;;;;;;;;5112521;27;20507;-87
2021/12/09 12:15:20;;;;;;;0.20;0.20;;;;;;;;;;5095675;28;20323;-84
2021/12/09 12:21:21;;;;;;;0.10;0.10;;;;;;;;;;5081084;28;20081;-86
2021/12/09 12:24:20;;;;;;;0.10;0.10;;;;;;;;;;5081845;28;20127;-85
2021/12/09 12:26:58;;;;;;;0.00;0.00;;;;;;;;;;5099908;28;20036;-85
2021/12/09 12:32:36;;;;;;;0.10;0.10;;;;;;;;;;5112158;28;20044;-86
2021/12/09 12:35:41;;;;;;;0.00;0.00;;;;;;;;;;5112163;28;20044;-85
2021/12/09 12:40:31;;;;;;;0.00;0.00;;;;;;;;;;5095954;28;20039;-85
2021/12/09 12:51:09;;;;;;;0.10;0.10;;;;;;;;;;5111921;28;20092;-86
2021/12/09 12:53:40;;;;;;;0.10;0.10;;;;;;;;;;5078406;28;20035;-85
2021/12/09 12:56:17;;;;;;;0.00;0.00;;;;;;;;;;5095679;28;20367;-87
2021/12/09 12:59:03;;;;;;;0.10;0.10;;;;;;;;;;5094813;28;20119;-87
2021/12/09 13:01:29;;;;;;;0.10;0.10;;;;;;;;;;5094378;28;20510;-85
2021/12/09 13:04:00;;;;;;;0.10;0.10;;;;;;;;;;5096402;28;20487;-85
2021/12/09 13:06:42;;;;;;;1.02;0.20;;;;;;;;;;5094813;28;20123;-92
2021/12/09 13:11:52;;;;;;;0.30;0.30;;;;;;;;;;5635904;22;20005;-86
2021/12/09 13:14:29;;;;;;;0.00;0.00;;;;;;;;;;5018399;28;20135;-85
2021/12/09 13:17:09;;;;;;;0.10;0.10;;;;;;;;;;5019610;28;20068;-87
2021/12/09 13:19:38;;;;;;;0.10;0.10;;;;;;;;;;5020414;28;20077;-87
2021/12/09 13:22:09;;;;;;;0.10;0.10;;;;;;;;;;5035149;28;20439;-86
2021/12/09 13:24:39;;;;;;;0.00;0.00;;;;;;;;;;5034699;28;20045;-86
2021/12/09 13:32:26;;;;;;;0.10;0.10;;;;;;;;;;5034077;28;20041;-86
2021/12/09 13:35:07;;;;;;;0.00;0.00;;;;;;;;;;5034629;28;20040;-88
2021/12/09 13:38:05;;;;;;;0.10;0.10;;;;;;;;;;5034362;28;20334;-86
2021/12/09 13:45:43;;;;;;;0.10;0.10;;;;;;;;;;5037107;28;20084;-86
2021/12/09 13:46:09;;;;;;;0.30;0.30;;;;;;;;;;5052495;28;20579;-92
2021/12/09 13:48:46;;;;;;;0.10;0.10;;;;;;;;;;5021052;28;20202;-94
2021/12/09 13:51:54;;;;;;;0.05;0.05;;;;;;;;;;5020539;28;20040;-91
2021/12/09 13:54:23;;;;;;;0.05;0.05;;;;;;;;;;5037956;28;20095;-91
2021/12/09 13:56:49;;;;;;;0.10;0.10;;;;;;;;;;5020066;28;20041;-91
2021/12/09 13:59:18;;;;;;;0.00;0.00;;;;;;;;;;5034127;28;20518;-86
2021/12/09 14:01:45;;;;;;;0.10;0.10;;;;;;;;;;5033782;28;20120;-87
2021/12/09 14:04:11;;;;;;;0.10;0.10;;;;;;;;;;5034079;28;20075;-87
2021/12/09 14:06:41;;;;;;;0.10;0.10;;;;;;;;;;5033631;28;20541;-87
2021/12/09 14:09:07;;;;;;;0.10;0.10;;;;;;;;;;5017243;28;20155;-87
2021/12/09 14:11:36;;;;;;;0.10;0.10;;;;;;;;;;5017058;28;20158;-87
2021/12/09 14:14:10;;;;;;;0.10;0.10;;;;;;;;;;5017774;28;20095;-87
2021/12/09 14:17:02;;;;;;;0.05;0.05;;;;;;;;;;5034652;28;20091;-88
2021/12/09 14:22:01;;;;;;;0.10;0.10;;;;;;;;;;5033853;28;20387;-86
2021/12/09 14:24:31;;;;;;;0.00;0.00;;;;;;;;;;5033548;28;20117;-87
2021/12/09 14:27:00;;;;;;;0.00;0.00;;;;;;;;;;5033756;28;20148;-87
2021/12/09 14:29:27;;;;;;;0.10;0.10;;;;;;;;;;5033380;28;20036;-86
2021/12/09 14:31:53;;;;;;;0.30;0.30;;;;;;;;;;5050145;28;20064;-87
2021/12/09 14:34:22;;;;;;;0.10;0.10;;;;;;;;;;5017321;28;20036;-88
2021/12/09 14:36:48;;;;;;;0.10;0.10;;;;;;;;;;5033893;28;20098;-86
2021/12/09 14:39:16;;;;;;;0.10;0.10;;;;;;;;;;5017174;28;20549;-84
2021/12/09 14:41:43;;;;;;;0.00;0.00;;;;;;;;;;5050369;28;20037;-85
2021/12/09 14:44:10;;;;;;;0.05;0.05;;;;;;;;;;5036676;28;20119;-85
2021/12/09 14:46:37;;;;;;;0.10;0.10;;;;;;;;;;5053618;28;20456;-85
2021/12/09 14:49:22;;;;;;;0.10;0.10;;;;;;;;;;5020791;28;20041;-87
2021/12/09 14:51:49;;;;;;;0.10;0.10;;;;;;;;;;5037213;28;20040;-86
2021/12/09 14:54:15;;;;;;;0.25;0.25;;;;;;;;;;5020757;28;20037;-86
2021/12/09 14:56:42;;;;;;;0.10;0.10;;;;;;;;;;5036720;28;20043;-87
2021/12/09 14:59:22;;;;;;;0.00;0.00;;;;;;;;;;5020734;28;20113;-86
2021/12/09 15:01:49;;;;;;;0.20;0.20;;;;;;;;;;5020740;28;20059;-91
2021/12/09 15:04:19;;;;;;;0.10;0.10;;;;;;;;;;5021252;28;20045;-91
2021/12/09 15:06:53;;;;;;;0.10;0.10;;;;;;;;;;5022399;28;20051;-92
2021/12/09 15:09:20;;;;;;;0.00;0.00;;;;;;;;;;5031975;28;20064;-92
2021/12/09 15:11:51;;;;;;;0.10;0.10;;;;;;;;;;5039584;28;20045;-90
2021/12/09 15:14:20;;;;;;;0.08;0.08;;;;;;;;;;5029875;28;20057;-88
2021/12/09 15:16:46;;;;;;;0.05;0.05;;;;;;;;;;5062043;28;20075;-87
2021/12/09 15:19:21;;;;;;;0.10;0.10;;;;;;;;;;5048367;28;20041;-88
2021/12/09 15:22:00;;;;;;;0.03;0.03;;;;;;;;;;5036305;28;20040;-89
2021/12/09 15:24:26;;;;;;;0.10;0.10;;;;;;;;;;5020037;28;20037;-88
2021/12/09 15:26:53;;;;;;;0.10;0.10;;;;;;;;;;5036623;28;20095;-89
2021/12/09 15:29:21;;;;;;;0.10;0.10;;;;;;;;;;5036331;28;20136;-87
2021/12/09 15:32:07;;;;;;;0.10;0.10;;;;;;;;;;5020163;28;20056;-88
2021/12/09 15:34:39;;;;;;;0.10;0.10;;;;;;;;;;5052676;28;20037;-89
2021/12/09 15:37:10;;;;;;;0.10;0.10;;;;;;;;;;5019588;28;20041;-89
2021/12/09 15:39:36;;;;;;;0.10;0.05;;;;;;;;;;5020370;28;20387;-88
2021/12/09 15:42:10;;;;;;;0.10;0.10;;;;;;;;;;5036116;28;20041;-89